Sykesville, Pennsylvania
Current Conditions -  °F | °C
As of 3:53 AM on Saturday 22 Nov 2014 (Local Time) from KDUJ Reporting Station
Clear Clear  
Wind Chill: 10°   Ceiling: Unl
Heat Index: 17°   Visibility: 10mi
Dew Point:   Wind: 5mph
Humidity: 65%   Direction: 180°S
Pressure: 30.34"   Gusts: NA
Location:  41.05°N, 78.82°W
Report Text: KDUJ 220853Z AUTO 18004KT 10SM CLR M08/M14 A3034 RMK AO2 SLP302 T10831139 58009
Loading
Personal Weather Stations






























Interactive Weather Map New forecast layout! Learn more

10-Day Weather Forecast

Advertisements
Track Severe Weather on mobile